Time;durP1;ratioP1;P1;durP2;ratioP2;P2;SDS_P1;SDS_P2;PMS_P1;PMS_P2;Temp;Humidity;BMP_temperature;BMP_pressure;BME280_temperature;BME280_humidity;BME280_pressure;Samples;Min_cycle;Max_cycle;Signal;HPM_P1;HPM_P2
2022/01/25 00:09:49;;;;;;;30.73;18.52;;;;;;;8.16;51.93;102642.34;5052238;28;20149;-74
2022/01/25 00:15:40;;;;;;;33.85;18.15;;;;;;;8.17;52.02;102638.75;5051030;28;20123;-74
2022/01/25 00:26:25;;;;;;;33.83;19.90;;;;;;;8.13;52.12;102630.91;5051253;28;20136;-74
2022/01/25 00:29:04;;;;;;;36.20;20.63;;;;;;;8.16;51.78;102631.66;5049658;28;20049;-72
2022/01/25 00:31:33;;;;;;;34.17;20.88;;;;;;;8.09;51.97;102636.56;5054006;28;20119;-73
2022/01/25 00:34:00;;;;;;;36.33;21.17;;;;;;;8.13;51.64;102625.56;5051074;28;20041;-72
2022/01/25 00:36:28;;;;;;;36.50;20.48;;;;;;;8.20;51.48;102625.19;5050801;28;20119;-72
2022/01/25 00:38:55;;;;;;;37.10;20.42;;;;;;;8.18;51.59;102627.94;5051124;28;20072;-72
2022/01/25 00:41:23;;;;;;;34.47;21.45;;;;;;;8.11;51.83;102630.16;5051182;28;20456;-72
2022/01/25 00:43:50;;;;;;;36.70;21.60;;;;;;;8.26;51.39;102622.09;5049448;28;20135;-73
2022/01/25 00:46:20;;;;;;;34.25;21.05;;;;;;;8.23;51.37;102617.84;5051368;28;20049;-74
2022/01/25 00:48:51;;;;;;;31.58;19.45;;;;;;;8.38;50.93;102606.13;5051135;28;20398;-74
2022/01/25 00:51:46;;;;;;;31.10;19.92;;;;;;;8.31;51.49;102603.97;5051718;28;20128;-74
2022/01/25 00:54:27;;;;;;;33.63;20.67;;;;;;;8.22;51.48;102600.06;5051040;28;20067;-74
2022/01/25 00:56:54;;;;;;;34.42;20.60;;;;;;;8.26;51.28;102595.38;5050872;28;20457;-73
2022/01/25 00:59:26;;;;;;;37.65;19.58;;;;;;;8.13;51.55;102600.66;5051403;28;20457;-75
2022/01/25 01:01:56;;;;;;;33.30;20.70;;;;;;;8.10;51.83;102601.72;5050193;28;20132;-75
2022/01/25 01:04:24;;;;;;;36.92;20.73;;;;;;;7.94;52.10;102594.75;5050004;28;20048;-74
2022/01/25 01:06:51;;;;;;;32.75;21.10;;;;;;;7.95;52.15;102585.78;5052978;28;20073;-75
2022/01/25 01:09:22;;;;;;;34.08;20.77;;;;;;;7.87;52.32;102588.94;5051466;28;20061;-74
2022/01/25 01:12:11;;;;;;;23.10;14.43;;;;;;;8.10;51.38;102590.16;5050613;28;20464;-75
2022/01/25 01:15:03;;;;;;;33.17;20.45;;;;;;;8.16;51.37;102584.44;5050770;28;20326;-75
2022/01/25 01:31:09;;;;;;;37.28;21.48;;;;;;;8.06;51.79;102577.94;5054962;28;20408;-73
2022/01/25 01:34:00;;;;;;;35.72;22.00;;;;;;;8.14;51.39;102581.84;5053642;28;20473;-74
2022/01/25 01:37:02;;;;;;;35.67;21.05;;;;;;;8.19;51.34;102584.19;5054357;28;20037;-74
2022/01/25 01:39:44;;;;;;;37.20;22.13;;;;;;;8.03;52.00;102589.69;5043927;28;20164;-74
2022/01/25 01:47:43;;;;;;;33.72;21.02;;;;;;;8.08;51.81;102581.38;5070256;28;20132;-75
2022/01/25 01:50:14;;;;;;;39.28;21.88;;;;;;;7.97;51.88;102590.06;5062363;28;20146;-75
2022/01/25 01:52:41;;;;;;;37.63;21.65;;;;;;;7.90;51.76;102584.25;5067994;28;20151;-75
2022/01/25 01:55:09;;;;;;;36.58;22.27;;;;;;;8.05;52.00;102578.88;5073461;28;20492;-74
2022/01/25 01:57:36;;;;;;;37.55;22.20;;;;;;;8.09;51.48;102583.09;5054346;28;20124;-74
2022/01/25 02:00:05;;;;;;;38.70;22.33;;;;;;;8.08;51.79;102582.22;5055173;28;20458;-74
2022/01/25 02:02:32;;;;;;;37.40;21.98;;;;;;;7.97;51.98;102579.38;5054107;28;20076;-75
2022/01/25 02:04:59;;;;;;;38.97;22.13;;;;;;;7.92;51.99;102580.66;5053945;28;20071;-74
2022/01/25 02:07:25;;;;;;;40.25;22.08;;;;;;;7.84;51.98;102581.13;5054504;28;20072;-75
2022/01/25 02:10:05;;;;;;;39.03;23.08;;;;;;;7.95;51.88;102575.97;5054435;28;20082;-74
2022/01/25 02:12:34;;;;;;;38.20;21.88;;;;;;;7.79;52.69;102569.84;5053831;28;20135;-74
2022/01/25 02:15:04;;;;;;;36.30;22.73;;;;;;;7.93;52.43;102575.19;5054036;28;20128;-74
2022/01/25 02:22:59;;;;;;;41.47;23.05;;;;;;;8.00;51.96;102568.50;5053399;28;20048;-75
2022/01/25 02:25:26;;;;;;;39.65;23.60;;;;;;;7.80;52.63;102571.53;5071549;28;20072;-75
2022/01/25 02:27:53;;;;;;;40.80;23.65;;;;;;;7.76;52.66;102560.19;5073996;28;20119;-75
2022/01/25 02:30:19;;;;;;;42.05;24.05;;;;;;;7.70;52.60;102555.22;5073057;28;20520;-74
2022/01/25 02:32:46;;;;;;;40.63;23.05;;;;;;;7.88;52.16;102553.25;5073688;28;20146;-73
2022/01/25 02:35:12;;;;;;;42.50;24.83;;;;;;;7.71;53.01;102554.31;5073777;28;20047;-73
2022/01/25 02:37:39;;;;;;;37.53;22.27;;;;;;;7.55;53.38;102559.72;5073679;28;20079;-74
2022/01/25 02:40:06;;;;;;;44.17;24.33;;;;;;;7.45;53.09;102561.25;5073274;28;20045;-74
2022/01/25 02:42:33;;;;;;;48.63;25.17;;;;;;;7.43;52.96;102552.50;5073522;28;20132;-75
2022/01/25 02:45:00;;;;;;;51.55;24.67;;;;;;;7.20;53.17;102556.56;5066072;28;20127;-75
2022/01/25 02:50:12;;;;;;;47.10;25.63;;;;;;;7.51;51.76;102547.53;5052569;28;20123;-74
2022/01/25 02:52:38;;;;;;;50.88;26.27;;;;;;;7.46;51.90;102551.44;5053235;28;20068;-74
2022/01/25 02:55:05;;;;;;;57.30;27.63;;;;;;;7.39;51.99;102548.28;5052367;28;20072;-74
2022/01/25 02:57:31;;;;;;;57.95;27.08;;;;;;;7.40;51.86;102548.19;5052373;28;20449;-73
2022/01/25 03:00:05;;;;;;;53.30;28.42;;;;;;;7.04;52.83;102537.94;5052999;28;20051;-74
2022/01/25 03:02:32;;;;;;;55.03;28.73;;;;;;;7.52;51.65;102541.22;5052074;28;20099;-75
2022/01/25 03:04:58;;;;;;;59.63;28.60;;;;;;;7.39;51.17;102546.47;5052812;28;20045;-74
2022/01/25 03:07:25;;;;;;;55.78;27.95;;;;;;;7.52;51.21;102541.22;5052430;28;20052;-74
2022/01/25 03:09:55;;;;;;;54.58;27.98;;;;;;;7.27;51.70;102541.88;5052581;28;20095;-73
2022/01/25 03:12:32;;;;;;;54.45;28.25;;;;;;;7.55;50.98;102551.72;5056125;28;20079;-73
2022/01/25 03:15:25;;;;;;;57.30;28.77;;;;;;;7.64;50.37;102548.47;5051702;28;20155;-74
2022/01/25 03:17:59;;;;;;;53.72;27.50;;;;;;;7.42;51.18;102550.75;5052900;28;20454;-74
2022/01/25 03:20:48;;;;;;;54.92;27.83;;;;;;;7.37;51.32;102550.19;5052157;28;20449;-75
2022/01/25 03:23:18;;;;;;;64.38;28.25;;;;;;;7.44;50.65;102543.53;5052508;28;20184;-75
2022/01/25 03:25:49;;;;;;;58.13;29.13;;;;;;;7.44;51.05;102530.16;5052347;28;21567;-74
2022/01/25 03:28:16;;;;;;;54.47;27.95;;;;;;;7.52;50.69;102535.03;5052953;28;20135;-74
2022/01/25 03:30:44;;;;;;;59.42;30.00;;;;;;;7.06;51.96;102533.38;5055800;28;20128;-74
2022/01/25 03:33:12;;;;;;;63.67;28.88;;;;;;;6.80;52.34;102542.06;5052820;28;20045;-74
2022/01/25 03:35:38;;;;;;;65.28;28.98;;;;;;;6.65;52.57;102551.84;5047951;28;20131;-75
2022/01/25 03:38:05;;;;;;;59.00;29.48;;;;;;;6.57;52.57;102551.44;5052568;28;20446;-74
2022/01/25 03:40:32;;;;;;;64.97;30.30;;;;;;;6.69;52.03;102558.72;5050276;28;20500;-75
2022/01/25 03:42:59;;;;;;;61.63;30.73;;;;;;;6.49;52.54;102562.53;5052544;28;20132;-74
2022/01/25 03:45:32;;;;;;;65.78;28.65;;;;;;;7.01;51.03;102562.13;5051640;28;20413;-75
2022/01/25 03:49:48;;;;;;;69.38;31.40;;;;;;;6.97;51.32;102565.94;5052696;28;20076;-74
2022/01/25 03:50:49;;;;;;;62.17;29.52;;;;;;;7.10;51.04;102558.94;5051516;28;20509;-74
2022/01/25 03:53:17;;;;;;;58.87;29.17;;;;;;;6.89;51.50;102554.88;5052275;28;20405;-74
2022/01/25 03:55:45;;;;;;;61.72;30.75;;;;;;;6.98;50.89;102543.66;5033151;28;20075;-75
2022/01/25 03:58:11;;;;;;;62.55;28.98;;;;;;;7.00;51.01;102541.75;5069933;28;20048;-74
2022/01/25 04:00:39;;;;;;;58.60;29.38;;;;;;;7.14;50.55;102547.09;5071469;28;20528;-74
2022/01/25 04:05:53;;;;;;;62.47;27.88;;;;;;;7.01;50.78;102539.94;5070920;28;20052;-75
2022/01/25 04:08:20;;;;;;;61.17;29.23;;;;;;;6.91;51.06;102539.63;5070120;28;20481;-75
2022/01/25 04:10:47;;;;;;;57.78;28.73;;;;;;;6.67;51.41;102539.31;5072387;28;20072;-75
2022/01/25 04:13:14;;;;;;;66.22;30.52;;;;;;;6.89;51.06;102533.53;5070837;28;20044;-74
2022/01/25 04:15:45;;;;;;;66.72;29.63;;;;;;;7.04;50.54;102535.28;5071661;28;20136;-74
2022/01/25 04:18:23;;;;;;;55.47;26.38;;;;;;;6.77;51.08;102537.78;5071094;28;20458;-75
2022/01/25 04:21:12;;;;;;;62.47;28.83;;;;;;;6.99;50.89;102531.19;5070897;28;20063;-74
2022/01/25 04:26:23;;;;;;;57.60;25.77;;;;;;;6.06;53.03;102518.81;5068846;28;20068;-74
2022/01/25 04:28:50;;;;;;;57.80;26.77;;;;;;;6.65;51.74;102507.38;5071774;28;20063;-75
2022/01/25 04:31:19;;;;;;;58.17;27.30;;;;;;;6.96;50.96;102505.53;5070601;28;20124;-75
2022/01/25 04:34:07;;;;;;;63.47;26.23;;;;;;;6.24;52.29;102497.28;5071541;28;20048;-75
2022/01/25 04:50:26;;;;;;;52.65;22.70;;;;;;;7.00;49.80;102517.72;5070970;28;20120;-76
2022/01/25 04:53:04;;;;;;;46.72;23.13;;;;;;;6.91;50.12;102523.63;5059406;28;20131;-76
2022/01/25 04:55:48;;;;;;;46.20;22.80;;;;;;;7.09;49.48;102517.19;5070289;28;20074;-76
2022/01/25 04:58:22;;;;;;;53.80;23.90;;;;;;;7.00;49.91;102520.41;5071432;28;20036;-76
2022/01/25 05:00:50;;;;;;;48.33;23.05;;;;;;;6.35;51.62;102518.00;5071195;28;20481;-76
2022/01/25 05:03:23;;;;;;;53.50;23.65;;;;;;;6.69;50.76;102516.91;5070981;28;20094;-76
2022/01/25 05:06:11;;;;;;;52.17;24.90;;;;;;;6.57;51.32;102506.97;5069902;28;20052;-76
2022/01/25 05:08:43;;;;;;;57.50;24.60;;;;;;;6.95;50.27;102517.16;5070522;28;20507;-75
2022/01/25 05:11:17;;;;;;;57.92;26.25;;;;;;;7.07;50.03;102519.06;5070032;28;20356;-75
2022/01/25 05:14:09;;;;;;;48.47;24.40;;;;;;;7.06;50.03;102522.72;5070274;28;20140;-75
2022/01/25 05:16:46;;;;;;;51.67;23.92;;;;;;;6.90;50.51;102516.56;5070133;28;20071;-75
2022/01/25 05:22:05;;;;;;;57.00;24.45;;;;;;;7.14;50.05;102514.22;5070650;28;20131;-75
2022/01/25 05:24:35;;;;;;;53.55;25.38;;;;;;;7.05;50.36;102521.00;5060396;28;20048;-75
2022/01/25 05:27:03;;;;;;;58.58;24.55;;;;;;;7.18;49.77;102513.06;5070190;28;20143;-75
2022/01/25 05:29:30;;;;;;;57.88;24.95;;;;;;;7.15;49.83;102516.81;5071113;28;20143;-75
2022/01/25 05:31:57;;;;;;;49.03;23.67;;;;;;;6.61;51.03;102511.16;5071460;28;20132;-76
2022/01/25 05:34:24;;;;;;;49.55;23.70;;;;;;;7.15;49.87;102519.50;5070914;28;20495;-75
2022/01/25 05:36:51;;;;;;;51.03;22.63;;;;;;;7.12;49.73;102526.81;5070333;28;20429;-75
2022/01/25 05:39:33;;;;;;;47.08;22.67;;;;;;;7.23;49.37;102526.16;5065611;28;20041;-75
2022/01/25 05:42:17;;;;;;;52.83;23.13;;;;;;;7.10;49.74;102534.91;5070875;28;20484;-75
2022/01/25 05:47:25;;;;;;;51.05;22.15;;;;;;;7.22;49.79;102530.63;5070624;28;20041;-75
2022/01/25 05:49:52;;;;;;;49.40;23.60;;;;;;;7.17;50.14;102530.06;5070902;28;20148;-75
2022/01/25 05:52:18;;;;;;;49.30;22.33;;;;;;;7.23;49.65;102528.84;5069967;28;20124;-75
2022/01/25 05:54:45;;;;;;;50.25;23.58;;;;;;;7.28;49.31;102532.06;5069807;28;20083;-75
2022/01/25 05:57:11;;;;;;;49.90;23.48;;;;;;;7.05;49.91;102530.78;5070745;28;20520;-75
2022/01/25 05:59:38;;;;;;;49.67;23.50;;;;;;;7.10;49.75;102534.91;5070698;28;20090;-75
2022/01/25 06:02:05;;;;;;;53.35;24.48;;;;;;;6.97;49.94;102533.94;5070382;28;20060;-74
2022/01/25 06:04:33;;;;;;;53.72;23.67;;;;;;;7.09;50.01;102543.03;5072682;28;20036;-75
2022/01/25 06:07:00;;;;;;;46.63;23.50;;;;;;;7.02;50.06;102531.84;5074733;28;20071;-75
2022/01/25 06:09:26;;;;;;;53.03;23.75;;;;;;;6.96;50.06;102542.88;5074144;28;20064;-75
2022/01/25 06:11:54;;;;;;;53.42;24.23;;;;;;;6.80;51.01;102540.25;5073798;28;20047;-75
2022/01/25 06:14:22;;;;;;;53.08;24.30;;;;;;;6.95;50.19;102530.50;5073692;28;20978;-75
2022/01/25 06:16:48;;;;;;;47.30;23.13;;;;;;;6.85;50.46;102526.69;5073911;28;20412;-75
2022/01/25 06:19:15;;;;;;;62.88;26.92;;;;;;;6.77;50.91;102529.78;5056028;28;20165;-71
2022/01/25 06:21:41;;;;;;;58.15;26.00;;;;;;;6.97;50.63;102527.72;5074333;28;20496;-71
2022/01/25 06:24:08;;;;;;;50.47;24.13;;;;;;;7.12;49.71;102533.00;5073722;28;20195;-71
2022/01/25 06:26:34;;;;;;;55.08;25.00;;;;;;;7.14;49.80;102528.41;5073918;28;20429;-71
2022/01/25 06:29:01;;;;;;;61.17;26.60;;;;;;;7.07;50.13;102528.91;5074005;28;20131;-71
2022/01/25 06:31:30;;;;;;;61.38;26.75;;;;;;;7.23;49.91;102540.38;5074287;28;20544;-71
2022/01/25 06:33:58;;;;;;;58.78;26.48;;;;;;;7.03;50.57;102541.56;5074023;28;20045;-71
2022/01/25 06:36:24;;;;;;;62.25;26.83;;;;;;;6.68;51.32;102546.34;5074336;28;20140;-71
2022/01/25 06:38:51;;;;;;;58.47;27.10;;;;;;;6.91;50.66;102535.16;5072724;28;20040;-70
2022/01/25 06:41:21;;;;;;;56.10;27.25;;;;;;;6.95;50.44;102534.03;5072504;28;20051;-70
2022/01/25 06:43:47;;;;;;;61.22;26.35;;;;;;;7.09;50.04;102529.69;5073954;28;20075;-70
2022/01/25 06:46:14;;;;;;;66.05;28.27;;;;;;;6.64;51.15;102528.81;5070368;28;20497;-69
2022/01/25 06:48:40;;;;;;;64.55;27.77;;;;;;;6.71;51.12;102527.50;5073450;28;20044;-69
2022/01/25 06:51:07;;;;;;;62.95;27.48;;;;;;;7.03;50.33;102525.56;5073412;28;20123;-69
2022/01/25 06:53:33;;;;;;;67.65;27.05;;;;;;;7.13;49.73;102523.19;5072396;28;20040;-70
2022/01/25 06:56:01;;;;;;;58.25;26.23;;;;;;;6.86;50.50;102529.25;5072513;28;20123;-70
2022/01/25 06:58:28;;;;;;;58.95;27.08;;;;;;;7.10;49.91;102540.25;5073265;28;20079;-69
2022/01/25 07:00:54;;;;;;;61.65;29.10;;;;;;;7.08;49.94;102536.78;5073141;28;20044;-70
2022/01/25 07:03:21;;;;;;;63.92;27.70;;;;;;;6.98;50.12;102538.34;5072267;28;20064;-70
2022/01/25 07:05:48;;;;;;;60.45;29.67;;;;;;;6.65;51.04;102523.38;5071832;28;20048;-71
2022/01/25 07:08:15;;;;;;;62.00;29.40;;;;;;;6.89;50.93;102531.72;5072414;28;20560;-71
2022/01/25 07:10:41;;;;;;;62.22;28.60;;;;;;;6.79;51.17;102535.03;5073549;28;20124;-71
2022/01/25 07:13:08;;;;;;;68.18;29.25;;;;;;;6.59;51.46;102530.88;5073155;28;20064;-70
2022/01/25 07:15:34;;;;;;;62.92;28.33;;;;;;;6.91;50.75;102536.94;5072307;28;20131;-71
2022/01/25 07:18:01;;;;;;;65.88;28.40;;;;;;;6.87;50.97;102546.94;5073331;28;20047;-71
2022/01/25 07:20:27;;;;;;;62.25;28.70;;;;;;;6.89;50.67;102542.41;5073286;28;20064;-70
2022/01/25 07:22:54;;;;;;;70.75;29.73;;;;;;;6.93;50.64;102543.06;5072948;28;20524;-70
2022/01/25 07:25:21;;;;;;;73.82;31.23;;;;;;;6.93;50.59;102554.59;5073127;28;20045;-70
2022/01/25 07:27:48;;;;;;;68.40;29.85;;;;;;;7.00;50.60;102551.56;5072530;28;20072;-70
2022/01/25 07:30:15;;;;;;;57.45;28.67;;;;;;;7.15;50.22;102553.31;5072791;28;20120;-70
2022/01/25 07:32:41;;;;;;;72.88;30.40;;;;;;;7.06;50.40;102549.41;5072366;28;20127;-70
2022/01/25 07:35:14;;;;;;;66.20;29.77;;;;;;;6.92;50.68;102547.56;5072185;28;20132;-70
2022/01/25 07:37:43;;;;;;;66.43;30.80;;;;;;;7.14;50.16;102546.25;5071458;28;20052;-71
2022/01/25 07:40:18;;;;;;;68.90;30.55;;;;;;;6.98;50.52;102541.00;5070758;28;20048;-71
2022/01/25 07:42:46;;;;;;;61.92;28.73;;;;;;;7.03;50.82;102541.56;5052454;28;20099;-71
2022/01/25 07:45:18;;;;;;;48.80;22.45;;;;;;;7.11;50.48;102538.44;5052429;28;20041;-72
2022/01/25 07:47:44;;;;;;;68.15;29.63;;;;;;;7.02;50.94;102542.53;5052423;28;20053;-72
2022/01/25 07:50:16;;;;;;;72.20;30.58;;;;;;;7.00;51.12;102539.09;5051657;28;20041;-72
2022/01/25 07:52:43;;;;;;;67.32;29.73;;;;;;;7.17;50.37;102541.59;5052057;28;20080;-71
2022/01/25 07:55:10;;;;;;;77.50;34.28;;;;;;;7.13;50.60;102545.41;5051507;28;20041;-72
2022/01/25 07:57:37;;;;;;;74.90;33.97;;;;;;;7.19;50.84;102550.38;5051775;28;20048;-71
2022/01/25 08:00:04;;;;;;;68.80;31.85;;;;;;;7.12;50.79;102538.34;5051773;28;20049;-69
2022/01/25 08:02:31;;;;;;;67.53;31.58;;;;;;;7.24;50.39;102544.75;5051898;28;20065;-71
2022/01/25 08:05:06;;;;;;;65.47;28.88;;;;;;;7.28;50.22;102542.75;5056818;28;20102;-69
2022/01/25 08:07:33;;;;;;;69.55;30.60;;;;;;;7.08;50.85;102536.78;5071681;28;20040;-68
2022/01/25 08:10:01;;;;;;;76.13;32.53;;;;;;;7.28;50.43;102540.06;5071162;28;20044;-68
2022/01/25 08:12:41;;;;;;;71.47;30.75;;;;;;;7.32;50.58;102541.59;5071243;28;20044;-69
2022/01/25 08:15:10;;;;;;;72.20;31.30;;;;;;;7.34;50.66;102542.38;5070695;28;20056;-69
2022/01/25 08:17:49;;;;;;;71.35;33.30;;;;;;;7.27;50.70;102543.72;5071839;28;20090;-69
2022/01/25 08:20:18;;;;;;;74.97;32.25;;;;;;;7.33;50.66;102543.34;5070441;28;20044;-69
2022/01/25 08:22:50;;;;;;;74.35;32.45;;;;;;;7.28;50.55;102542.75;5070642;28;20045;-69
2022/01/25 08:25:26;;;;;;;73.45;31.65;;;;;;;7.45;50.45;102545.22;5070828;28;20531;-71
2022/01/25 08:27:57;;;;;;;;;;;;;;;7.16;50.96;102544.38;5071107;28;20048;-71
2022/01/25 08:30:26;;;;;;;75.15;31.52;;;;;;;7.28;50.64;102537.41;5071307;28;20372;-71
2022/01/25 08:33:03;;;;;;;73.13;32.05;;;;;;;7.10;51.54;102539.41;5070538;28;20040;-71
2022/01/25 08:35:36;;;;;;;68.65;32.35;;;;;;;6.78;51.87;102538.66;5070490;28;20098;-71
2022/01/25 08:38:14;;;;;;;78.22;33.47;;;;;;;6.53;53.05;102532.09;5071017;28;20119;-70
2022/01/25 08:40:42;;;;;;;73.95;31.85;;;;;;;6.52;52.79;102532.19;5070767;28;20270;-70
2022/01/25 08:43:14;;;;;;;72.38;33.45;;;;;;;6.99;51.95;102529.38;5071603;28;20048;-71
2022/01/25 08:45:50;;;;;;;74.78;32.42;;;;;;;7.16;51.13;102529.19;5069744;28;20106;-71
2022/01/25 08:48:25;;;;;;;64.47;30.17;;;;;;;7.13;50.89;102532.06;5052209;28;20049;-70
2022/01/25 08:50:53;;;;;;;68.10;31.20;;;;;;;7.37;50.44;102535.03;5050394;28;20063;-70
2022/01/25 08:53:29;;;;;;;62.92;31.90;;;;;;;7.43;50.71;102526.66;5051077;28;20064;-70
2022/01/25 08:55:58;;;;;;;70.55;32.85;;;;;;;7.15;51.55;102529.28;5054222;28;20064;-71
2022/01/25 08:58:31;;;;;;;71.07;31.48;;;;;;;7.46;51.05;102533.59;5052148;28;20530;-71
2022/01/25 09:00:57;;;;;;;71.65;30.95;;;;;;;7.62;50.21;102529.00;5051689;28;20047;-71
2022/01/25 09:03:24;;;;;;;69.30;32.30;;;;;;;7.39;50.61;102538.44;5050237;28;21164;-71
2022/01/25 09:05:50;;;;;;;71.05;31.65;;;;;;;7.38;50.90;102538.56;5051396;28;20045;-70
2022/01/25 09:08:22;;;;;;;74.03;31.63;;;;;;;7.39;50.72;102530.44;5051094;28;20049;-70
2022/01/25 09:10:59;;;;;;;72.15;32.25;;;;;;;7.48;50.84;102528.16;5051775;28;20107;-71
2022/01/25 09:13:26;;;;;;;72.38;31.77;;;;;;;6.94;51.95;102534.09;5051977;28;20440;-71
2022/01/25 09:15:52;;;;;;;66.75;30.33;;;;;;;7.00;52.26;102524.88;5050602;28;20053;-71
2022/01/25 09:18:19;;;;;;;78.38;34.42;;;;;;;7.50;50.91;102526.25;5051853;28;20049;-70
2022/01/25 09:20:46;;;;;;;74.20;31.90;;;;;;;7.28;51.23;102530.25;5051045;28;20478;-70
2022/01/25 09:23:15;;;;;;;73.60;32.58;;;;;;;7.40;51.09;102526.84;5042802;28;20127;-71
2022/01/25 09:25:42;;;;;;;67.15;32.03;;;;;;;7.48;50.69;102522.81;5052421;28;20462;-71
2022/01/25 09:28:09;;;;;;;69.15;31.27;;;;;;;7.37;51.25;102526.16;5050387;28;20064;-73
2022/01/25 09:30:35;;;;;;;64.05;29.92;;;;;;;7.56;51.34;102516.03;5050677;28;20068;-72
2022/01/25 09:33:02;;;;;;;66.35;29.23;;;;;;;7.11;52.02;102522.41;5051297;28;20192;-70
2022/01/25 09:35:28;;;;;;;62.90;29.05;;;;;;;7.59;50.72;102518.50;5050127;28;20055;-70
2022/01/25 09:37:55;;;;;;;63.28;28.55;;;;;;;7.35;51.75;102512.03;5051596;28;20593;-70
2022/01/25 09:40:21;;;;;;;60.45;26.20;;;;;;;7.92;50.48;102513.84;5055013;28;20061;-70
2022/01/25 09:42:51;;;;;;;55.42;26.45;;;;;;;8.02;51.04;102512.25;5054263;28;20128;-70
2022/01/25 09:45:18;;;;;;;60.35;27.85;;;;;;;7.93;51.01;102507.53;5054540;28;20041;-71
2022/01/25 09:47:46;;;;;;;64.22;27.02;;;;;;;8.10;50.34;102516.16;5057870;28;20072;-70
2022/01/25 09:50:14;;;;;;;57.08;26.08;;;;;;;7.88;50.91;102522.06;5055845;28;20128;-71
2022/01/25 09:52:42;;;;;;;52.50;25.65;;;;;;;7.94;50.64;102525.28;5055283;28;20053;-71
2022/01/25 09:55:10;;;;;;;56.50;26.65;;;;;;;7.90;50.77;102525.47;5055128;28;20072;-71
2022/01/25 09:57:37;;;;;;;58.55;25.80;;;;;;;8.19;50.48;102517.34;5054159;28;20132;-70
2022/01/25 10:00:07;;;;;;;54.95;25.50;;;;;;;8.22;49.86;102518.97;5055148;28;20052;-71
2022/01/25 10:02:50;;;;;;;56.47;26.10;;;;;;;8.28;49.79;102513.25;5054685;28;20045;-71
2022/01/25 10:05:35;;;;;;;56.70;26.45;;;;;;;7.92;50.49;102517.38;5053798;28;20045;-71
2022/01/25 10:08:08;;;;;;;63.92;26.23;;;;;;;8.04;50.17;102518.38;5054745;28;20132;-71
2022/01/25 10:10:39;;;;;;;54.67;25.52;;;;;;;7.59;51.36;102512.31;5055262;28;20120;-71
2022/01/25 10:13:14;;;;;;;56.45;26.85;;;;;;;7.80;51.01;102512.75;5055881;28;21649;-71
2022/01/25 10:15:42;;;;;;;56.67;26.13;;;;;;;7.85;51.08;102514.22;5051977;28;20048;-70
2022/01/25 10:18:17;;;;;;;59.40;26.67;;;;;;;7.95;50.74;102519.84;5054037;28;20047;-71
2022/01/25 10:20:49;;;;;;;60.70;26.90;;;;;;;7.49;51.55;102506.69;5056700;28;20053;-70
2022/01/25 10:23:25;;;;;;;55.95;25.83;;;;;;;7.25;52.55;102516.22;5054135;28;20084;-70
2022/01/25 10:25:52;;;;;;;53.67;25.45;;;;;;;7.28;52.75;102514.22;5053954;28;20072;-72
2022/01/25 10:28:24;;;;;;;55.00;24.17;;;;;;;7.04;53.11;102511.25;5072493;28;20098;-70
2022/01/25 10:30:57;;;;;;;56.88;25.27;;;;;;;7.10;53.13;102508.22;5073976;28;20045;-70
2022/01/25 10:33:33;;;;;;;53.92;24.27;;;;;;;7.47;52.04;102505.94;5073726;28;20055;-70
2022/01/25 10:36:10;;;;;;;57.08;26.70;;;;;;;7.64;51.92;102505.75;5074258;28;20064;-71
2022/01/25 10:38:37;;;;;;;59.78;25.38;;;;;;;7.63;52.32;102489.78;5066989;28;20076;-70
2022/01/25 10:41:10;;;;;;;59.15;25.85;;;;;;;7.52;52.88;102500.31;5055143;28;20485;-71
2022/01/25 10:43:38;;;;;;;52.47;25.17;;;;;;;8.01;51.38;102492.69;5071003;28;20117;-70
2022/01/25 10:46:06;;;;;;;56.75;23.70;;;;;;;7.72;52.51;102499.91;5066773;28;20095;-71
2022/01/25 10:48:33;;;;;;;50.22;23.15;;;;;;;7.69;51.81;102505.44;5053479;28;20076;-70
2022/01/25 10:51:06;;;;;;;53.53;24.67;;;;;;;7.63;52.25;102498.66;5053119;28;20086;-71
2022/01/25 10:53:33;;;;;;;52.58;23.52;;;;;;;7.74;51.67;102502.47;5056402;28;20040;-70
2022/01/25 10:56:00;;;;;;;48.58;22.55;;;;;;;7.63;52.26;102501.34;5052633;28;20415;-70
2022/01/25 10:58:28;;;;;;;48.22;22.48;;;;;;;7.51;52.79;102499.47;5053360;28;20409;-71
2022/01/25 11:00:55;;;;;;;45.75;21.13;;;;;;;6.89;53.63;102504.19;5047173;28;20052;-70
2022/01/25 11:03:32;;;;;;;46.92;21.92;;;;;;;7.48;52.33;102504.13;5052041;28;20102;-70
2022/01/25 11:06:18;;;;;;;45.85;20.90;;;;;;;7.55;52.44;102503.63;5049436;28;20049;-70
2022/01/25 11:08:50;;;;;;;52.00;21.70;;;;;;;7.51;52.15;102495.94;5062841;28;20052;-70
2022/01/25 11:11:27;;;;;;;51.10;22.35;;;;;;;7.73;51.99;102490.91;5072701;28;20124;-70
2022/01/25 11:13:54;;;;;;;48.85;20.63;;;;;;;7.84;51.86;102482.25;5072406;28;20098;-70
2022/01/25 11:16:21;;;;;;;45.28;20.77;;;;;;;7.32;53.09;102480.19;5072806;28;20485;-70
2022/01/25 11:18:48;;;;;;;48.85;22.13;;;;;;;7.99;51.66;102480.41;5057961;28;20098;-70
2022/01/25 11:21:16;;;;;;;42.92;20.48;;;;;;;7.96;51.67;102475.28;5055215;28;20154;-70
2022/01/25 11:23:44;;;;;;;44.15;20.67;;;;;;;7.98;51.60;102476.00;5051982;28;20079;-70
2022/01/25 11:26:13;;;;;;;43.90;19.92;;;;;;;7.73;51.83;102463.34;5056433;28;20045;-70
2022/01/25 11:28:41;;;;;;;38.22;17.85;;;;;;;7.35;52.97;102466.66;5052620;28;20430;-70
2022/01/25 11:31:20;;;;;;;48.08;20.17;;;;;;;7.77;52.11;102460.38;5052207;28;20099;-71
2022/01/25 11:33:49;;;;;;;38.45;17.52;;;;;;;7.97;51.26;102460.94;5051947;28;20045;-70
2022/01/25 11:36:16;;;;;;;38.90;17.85;;;;;;;7.90;51.57;102460.47;5052959;28;20040;-71
2022/01/25 11:38:47;;;;;;;35.53;17.83;;;;;;;7.46;52.48;102461.47;5052275;28;20075;-70
2022/01/25 11:41:16;;;;;;;35.30;16.95;;;;;;;7.66;52.17;102452.19;5054675;28;20044;-70
2022/01/25 11:43:44;;;;;;;35.17;16.45;;;;;;;7.76;52.23;102460.50;5052164;28;20073;-71
2022/01/25 11:46:11;;;;;;;38.20;17.50;;;;;;;8.17;51.01;102456.94;5051696;28;20044;-71
2022/01/25 11:48:43;;;;;;;35.85;17.85;;;;;;;8.34;50.44;102456.69;5051220;28;20094;-72
2022/01/25 11:51:16;;;;;;;36.22;16.67;;;;;;;8.09;50.86;102461.00;5057229;28;20416;-72
2022/01/25 11:53:46;;;;;;;32.13;15.50;;;;;;;8.16;50.93;102465.91;5040165;28;20501;-70
2022/01/25 11:56:13;;;;;;;34.63;16.95;;;;;;;7.89;51.63;102454.28;5033840;28;20069;-71
2022/01/25 11:58:41;;;;;;;42.03;16.42;;;;;;;7.54;52.84;102461.03;5033541;28;20076;-71
2022/01/25 12:01:23;;;;;;;33.92;15.77;;;;;;;8.06;51.09;102466.53;5048715;28;20071;-71
2022/01/25 12:04:02;;;;;;;37.95;16.58;;;;;;;8.15;50.97;102459.72;5048620;28;20049;-71
2022/01/25 12:06:33;;;;;;;32.58;15.32;;;;;;;8.10;51.34;102460.03;5050406;28;20052;-72
2022/01/25 12:09:12;;;;;;;38.25;16.10;;;;;;;8.19;50.79;102460.38;5049418;28;20064;-72
2022/01/25 12:12:07;;;;;;;33.80;15.05;;;;;;;8.49;50.00;102466.34;5050304;28;20049;-72
2022/01/25 12:14:51;;;;;;;34.50;15.82;;;;;;;7.73;51.72;102455.34;5055256;28;20120;-71
2022/01/25 12:17:23;;;;;;;38.22;15.57;;;;;;;8.15;50.86;102454.38;5052690;28;20469;-71
2022/01/25 12:19:53;;;;;;;33.40;15.65;;;;;;;8.33;50.31;102452.28;5052333;28;20499;-72
2022/01/25 12:22:27;;;;;;;35.20;16.52;;;;;;;8.04;50.95;102446.22;5051837;28;20040;-72
2022/01/25 12:25:06;;;;;;;43.22;19.73;;;;;;;7.88;51.29;102449.91;5051499;28;20045;-71
2022/01/25 12:27:42;;;;;;;37.45;16.52;;;;;;;8.14;50.93;102437.47;5051215;28;20128;-71
2022/01/25 12:30:13;;;;;;;33.80;15.35;;;;;;;7.86;51.19;102441.13;5050968;28;20127;-72
2022/01/25 12:33:00;;;;;;;31.98;14.27;;;;;;;8.10;50.77;102419.06;5051748;28;20128;-72
2022/01/25 12:35:37;;;;;;;29.52;14.32;;;;;;;8.00;51.03;102432.19;5051512;28;20045;-72
2022/01/25 12:38:15;;;;;;;35.92;14.50;;;;;;;8.11;50.99;102421.63;5051625;28;20477;-71
2022/01/25 12:40:48;;;;;;;29.90;14.25;;;;;;;8.08;51.02;102423.66;5051247;28;20449;-71
2022/01/25 12:43:19;;;;;;;29.23;14.10;;;;;;;8.22;50.45;102422.72;5051232;28;20092;-71
2022/01/25 12:46:01;;;;;;;26.65;13.18;;;;;;;8.08;51.02;102426.31;5051261;28;20057;-71